Terminal Aerodrome Forecast
Issued by NWS Charleston, WV

Current Version | Previous Version | Graphics & Text | Print | Product List | Glossary On
Versions: 1 2 3 4 5 6 7 8 9 10 11 12 13 14 15 16 17 18 19 20 21 22 23 24 25 26
425
FTUS41 KRLX 202332
TAFHTS
TAF
KHTS 202332Z 2100/2124 19006KT P6SM FEW250
     FM211500 21008G14KT P6SM BKN030
     FM211800 23010G19KT P6SM BKN030
     FM211900 31009G16KT P6SM BKN015
     FM212100 33008KT P6SM SHRA OVC030=

USA.gov is the U.S. government's official web portal to all federal, state and local government web resources and services.